createdAt,value
2022-08-03T03:56:29.986Z,100499.47
2022-08-03T03:59:32.326Z,100498.37
2022-08-03T04:02:39.384Z,100501.13
2022-08-03T04:06:00.342Z,100508.09
2022-08-03T04:09:21.045Z,100509.66
2022-08-03T04:12:26.276Z,100508.53
2022-08-03T04:15:30.440Z,100506.84
2022-08-03T04:18:34.670Z,100510.38
2022-08-03T04:21:41.441Z,100518.16
2022-08-03T04:24:48.443Z,100520.84
2022-08-03T04:28:07.944Z,100528.63
2022-08-03T04:31:16.830Z,100523.31
2022-08-03T04:34:19.041Z,100525.84
2022-08-03T04:37:38.751Z,100532.72
2022-08-03T04:40:43.722Z,100524.53
2022-08-03T04:43:48.661Z,100531.66
2022-08-03T04:46:52.779Z,100534.19
2022-08-03T04:49:55.677Z,100529.56
2022-08-03T04:52:57.850Z,100533.81
2022-08-03T04:56:07.131Z,100536.06
2022-08-03T04:59:10.335Z,100539.41
2022-08-03T05:02:12.719Z,100551.53
2022-08-03T05:05:15.844Z,100548.50
2022-08-03T05:08:20.561Z,100549.25
2022-08-03T05:11:30.378Z,100556.06
2022-08-03T05:14:33.728Z,100565.50
2022-08-03T05:17:36.711Z,100558.00
2022-08-03T05:20:39.057Z,100567.41
2022-08-03T05:23:41.373Z,100565.03
2022-08-03T05:26:43.718Z,100564.47
2022-08-03T05:29:46.658Z,100571.28
2022-08-03T05:32:48.990Z,100565.38
2022-08-03T05:36:00.784Z,100559.53
2022-08-03T05:39:05.538Z,100566.94
2022-08-03T05:42:07.893Z,100572.91
2022-08-03T05:45:28.798Z,100567.88
2022-08-03T05:48:30.962Z,100566.63
2022-08-03T05:51:33.327Z,100569.56
2022-08-03T05:54:57.487Z,100567.50
2022-08-03T05:57:57.766Z,100572.19
2022-08-03T06:01:00.978Z,100574.62
2022-08-03T06:04:03.347Z,100584.56
2022-08-03T06:07:05.436Z,100585.25
2022-08-03T06:10:36.451Z,100586.22
2022-08-03T06:13:31.087Z,100586.00
2022-08-03T06:16:33.818Z,100589.91
2022-08-03T06:19:35.942Z,100597.66
2022-08-03T06:22:44.498Z,100593.63
2022-08-03T06:25:53.206Z,100589.09
2022-08-03T06:28:55.916Z,100598.50
2022-08-03T06:31:57.989Z,100596.19
2022-08-03T06:35:01.008Z,100599.34
2022-08-03T06:38:03.277Z,100591.19
2022-08-03T06:41:05.609Z,100591.62
2022-08-03T06:44:07.680Z,100592.47
2022-08-03T06:47:10.150Z,100594.03
2022-08-03T06:50:16.314Z,100598.75
2022-08-03T06:53:21.412Z,100602.28
2022-08-03T06:56:23.725Z,100592.16
2022-08-03T07:00:09.608Z,100601.34
2022-08-03T07:02:48.287Z,100600.41
2022-08-03T07:05:54.974Z,100603.63
2022-08-03T07:08:59.549Z,100602.41
2022-08-03T07:12:02.372Z,100605.38
2022-08-03T07:15:05.213Z,100602.34
2022-08-03T07:18:07.567Z,100607.81
2022-08-03T07:21:10.925Z,100598.22
2022-08-03T07:24:13.277Z,100603.25
2022-08-03T07:27:16.443Z,100607.25
2022-08-03T07:30:19.079Z,100614.69
2022-08-03T07:33:21.179Z,100606.53
2022-08-03T07:36:24.685Z,100604.44
2022-08-03T07:39:26.926Z,100606.75
2022-08-03T07:42:29.973Z,100602.25
2022-08-03T07:45:32.190Z,100602.72
2022-08-03T07:48:34.536Z,100601.03
2022-08-03T07:51:36.845Z,100597.84
2022-08-03T07:54:39.188Z,100596.75
2022-08-03T07:57:41.471Z,100597.69
2022-08-03T08:00:44.674Z,100591.91
2022-08-03T08:03:53.325Z,100598.69
2022-08-03T08:06:55.645Z,100595.97
2022-08-03T08:09:57.977Z,100593.00
2022-08-03T08:13:00.297Z,100593.06
2022-08-03T08:16:02.782Z,100592.84
2022-08-03T08:19:04.893Z,100589.19
2022-08-03T08:22:07.239Z,100585.97
2022-08-03T08:25:09.582Z,100594.03
2022-08-03T08:28:29.039Z,100595.28
2022-08-03T08:31:34.273Z,100592.87
2022-08-03T08:34:36.706Z,100586.44
2022-08-03T08:37:40.313Z,100589.50
2022-08-03T08:40:42.780Z,100583.44
2022-08-03T08:43:44.907Z,100586.34
2022-08-03T08:46:47.952Z,100585.19
2022-08-03T08:50:09.246Z,100585.66
2022-08-03T08:53:17.562Z,100586.31
2022-08-03T08:56:25.322Z,100573.94
2022-08-03T08:59:49.093Z,100580.75
2022-08-03T09:02:50.277Z,100574.34
2022-08-03T09:05:56.035Z,100569.34
2022-08-03T09:08:58.667Z,100568.63
2022-08-03T09:12:20.010Z,100574.41
2022-08-03T09:15:33.234Z,100570.81
2022-08-03T09:18:35.570Z,100567.41
2022-08-03T09:21:37.641Z,100560.41
2022-08-03T09:25:21.526Z,100562.91
2022-08-03T09:28:52.847Z,100560.56
2022-08-03T09:31:47.357Z,100561.25
2022-08-03T09:34:54.181Z,100554.59
2022-08-03T09:38:14.408Z,100550.06
2022-08-03T09:41:19.750Z,100553.13
2022-08-03T09:44:34.239Z,100555.69
2022-08-03T09:47:36.622Z,100548.63
2022-08-03T09:50:58.511Z,100549.03
2022-08-03T09:54:27.347Z,100549.03
2022-08-03T09:57:30.775Z,100545.47
2022-08-03T10:00:32.861Z,100538.56
2022-08-03T10:04:02.703Z,100538.28
2022-08-03T10:07:06.773Z,100532.88
2022-08-03T10:10:29.935Z,100534.50
2022-08-03T10:13:33.360Z,100533.88
2022-08-03T10:16:40.140Z,100519.84
2022-08-03T10:19:42.144Z,100531.22
2022-08-03T10:22:44.502Z,100525.31
2022-08-03T10:25:49.537Z,100528.37
2022-08-03T10:28:56.562Z,100527.88
